sensor_id;sensor_type;location;lat;lon;timestamp;pressure;altitude;pressure_sealevel;temperature;humidity
58771;BME280;44539;42.962;1.596;2022-09-28T00:00:07;96650.78;;;12.41;99.39
58771;BME280;44539;42.962;1.596;2022-09-28T00:02:33;96662.28;;;12.42;98.34
58771;BME280;44539;42.962;1.596;2022-09-28T00:05:00;96650.19;;;12.46;100.00
58771;BME280;44539;42.962;1.596;2022-09-28T00:07:25;96637.69;;;12.46;100.00
58771;BME280;44539;42.962;1.596;2022-09-28T00:09:51;96630.94;;;12.51;98.85
58771;BME280;44539;42.962;1.596;2022-09-28T00:12:16;96638.34;;;12.55;97.07
58771;BME280;44539;42.962;1.596;2022-09-28T00:14:42;96628.94;;;12.59;98.28
58771;BME280;44539;42.962;1.596;2022-09-28T00:17:09;96632.63;;;12.65;100.00
58771;BME280;44539;42.962;1.596;2022-09-28T00:19:36;96628.13;;;12.59;100.00
58771;BME280;44539;42.962;1.596;2022-09-28T00:22:03;96627.09;;;12.60;100.00
58771;BME280;44539;42.962;1.596;2022-09-28T00:24:28;96619.91;;;12.60;100.00
58771;BME280;44539;42.962;1.596;2022-09-28T00:26:56;96627.50;;;12.63;98.40
58771;BME280;44539;42.962;1.596;2022-09-28T00:29:33;96621.56;;;12.68;98.29
58771;BME280;44539;42.962;1.596;2022-09-28T00:32:00;96624.25;;;12.68;97.92
58771;BME280;44539;42.962;1.596;2022-09-28T00:34:33;96616.88;;;12.70;99.31
58771;BME280;44539;42.962;1.596;2022-09-28T00:37:00;96620.34;;;12.64;100.00
58771;BME280;44539;42.962;1.596;2022-09-28T00:39:26;96622.34;;;12.55;100.00
58771;BME280;44539;42.962;1.596;2022-09-28T00:41:53;96614.38;;;12.55;100.00
58771;BME280;44539;42.962;1.596;2022-09-28T00:46:48;96612.72;;;12.61;100.00
58771;BME280;44539;42.962;1.596;2022-09-28T00:49:16;96607.19;;;12.62;100.00
58771;BME280;44539;42.962;1.596;2022-09-28T00:51:44;96607.00;;;12.64;100.00
58771;BME280;44539;42.962;1.596;2022-09-28T00:54:11;96613.78;;;12.66;100.00
58771;BME280;44539;42.962;1.596;2022-09-28T00:56:41;96610.09;;;12.68;99.44
58771;BME280;44539;42.962;1.596;2022-09-28T00:59:10;96602.31;;;12.66;99.56
58771;BME280;44539;42.962;1.596;2022-09-28T01:01:36;96611.72;;;12.69;100.00
58771;BME280;44539;42.962;1.596;2022-09-28T01:04:02;96614.59;;;12.67;100.00
58771;BME280;44539;42.962;1.596;2022-09-28T01:06:31;96622.19;;;12.70;99.96
58771;BME280;44539;42.962;1.596;2022-09-28T01:09:00;96626.91;;;12.68;100.00
58771;BME280;44539;42.962;1.596;2022-09-28T01:11:28;96626.28;;;12.73;97.90
58771;BME280;44539;42.962;1.596;2022-09-28T01:13:56;96609.88;;;12.76;98.18
58771;BME280;44539;42.962;1.596;2022-09-28T01:27:33;96606.41;;;12.75;96.47
58771;BME280;44539;42.962;1.596;2022-09-28T01:30:09;96610.09;;;12.74;96.41
58771;BME280;44539;42.962;1.596;2022-09-28T01:32:58;96607.22;;;12.76;97.26
58771;BME280;44539;42.962;1.596;2022-09-28T01:35:34;96597.16;;;12.71;98.72
58771;BME280;44539;42.962;1.596;2022-09-28T01:40:32;96602.69;;;12.63;100.00
58771;BME280;44539;42.962;1.596;2022-09-28T01:43:03;96596.97;;;12.59;100.00
58771;BME280;44539;42.962;1.596;2022-09-28T01:45:43;96592.88;;;12.57;100.00
58771;BME280;44539;42.962;1.596;2022-09-28T01:48:20;96586.69;;;12.63;100.00
58771;BME280;44539;42.962;1.596;2022-09-28T01:50:49;96597.16;;;12.58;100.00
58771;BME280;44539;42.962;1.596;2022-09-28T01:53:34;96583.22;;;12.56;100.00
58771;BME280;44539;42.962;1.596;2022-09-28T01:56:06;96583.41;;;12.54;100.00
58771;BME280;44539;42.962;1.596;2022-09-28T02:01:15;96571.94;;;12.54;100.00
58771;BME280;44539;42.962;1.596;2022-09-28T02:03:49;96571.94;;;12.47;100.00
58771;BME280;44539;42.962;1.596;2022-09-28T02:06:21;96568.22;;;12.48;100.00
58771;BME280;44539;42.962;1.596;2022-09-28T02:08:52;96564.56;;;12.49;100.00
58771;BME280;44539;42.962;1.596;2022-09-28T02:11:20;96566.78;;;12.39;100.00
58771;BME280;44539;42.962;1.596;2022-09-28T02:19:00;96550.00;;;12.38;100.00
58771;BME280;44539;42.962;1.596;2022-09-28T02:24:16;96540.56;;;12.42;100.00
58771;BME280;44539;42.962;1.596;2022-09-28T02:26:44;96543.03;;;12.44;100.00
58771;BME280;44539;42.962;1.596;2022-09-28T02:29:12;96538.53;;;12.44;100.00
58771;BME280;44539;42.962;1.596;2022-09-28T02:31:37;96525.84;;;12.46;100.00
58771;BME280;44539;42.962;1.596;2022-09-28T02:34:03;96538.34;;;12.46;100.00
58771;BME280;44539;42.962;1.596;2022-09-28T02:36:28;96536.88;;;12.43;100.00
58771;BME280;44539;42.962;1.596;2022-09-28T02:38:56;96540.56;;;12.42;100.00
58771;BME280;44539;42.962;1.596;2022-09-28T02:45:23;96533.41;;;12.50;100.00
58771;BME280;44539;42.962;1.596;2022-09-28T02:58:05;96503.91;;;12.44;100.00
58771;BME280;44539;42.962;1.596;2022-09-28T03:01:25;96519.66;;;12.39;100.00
58771;BME280;44539;42.962;1.596;2022-09-28T03:04:04;96527.63;;;12.33;100.00
58771;BME280;44539;42.962;1.596;2022-09-28T03:09:21;96528.88;;;12.37;100.00
58771;BME280;44539;42.962;1.596;2022-09-28T03:11:55;96534.81;;;12.39;100.00
58771;BME280;44539;42.962;1.596;2022-09-28T03:14:23;96536.50;;;12.46;100.00
58771;BME280;44539;42.962;1.596;2022-09-28T03:16:49;96534.63;;;12.40;100.00
58771;BME280;44539;42.962;1.596;2022-09-28T03:19:21;96528.50;;;12.40;100.00
58771;BME280;44539;42.962;1.596;2022-09-28T03:21:48;96521.31;;;12.40;100.00
58771;BME280;44539;42.962;1.596;2022-09-28T03:24:14;96516.59;;;12.42;100.00
58771;BME280;44539;42.962;1.596;2022-09-28T03:26:39;96517.00;;;12.39;100.00
58771;BME280;44539;42.962;1.596;2022-09-28T03:29:05;96516.16;;;12.32;100.00
58771;BME280;44539;42.962;1.596;2022-09-28T03:31:31;96517.59;;;12.28;100.00
58771;BME280;44539;42.962;1.596;2022-09-28T03:33:56;96514.31;;;12.33;100.00
58771;BME280;44539;42.962;1.596;2022-09-28T03:36:22;96519.47;;;12.34;100.00
58771;BME280;44539;42.962;1.596;2022-09-28T03:38:47;96513.50;;;12.32;100.00
58771;BME280;44539;42.962;1.596;2022-09-28T03:41:15;96529.84;;;12.22;100.00
58771;BME280;44539;42.962;1.596;2022-09-28T03:43:41;96525.59;;;12.28;100.00
58771;BME280;44539;42.962;1.596;2022-09-28T03:46:06;96527.44;;;12.34;100.00
58771;BME280;44539;42.962;1.596;2022-09-28T03:48:33;96520.06;;;12.36;100.00
58771;BME280;44539;42.962;1.596;2022-09-28T03:51:01;96527.25;;;12.42;100.00
58771;BME280;44539;42.962;1.596;2022-09-28T03:53:27;96519.66;;;12.39;100.00
58771;BME280;44539;42.962;1.596;2022-09-28T03:56:01;96526.03;;;12.65;100.00
58771;BME280;44539;42.962;1.596;2022-09-28T03:58:27;96498.38;;;13.19;100.00
58771;BME280;44539;42.962;1.596;2022-09-28T04:00:53;96505.56;;;13.19;100.00
58771;BME280;44539;42.962;1.596;2022-09-28T04:03:18;96497.56;;;13.12;100.00
58771;BME280;44539;42.962;1.596;2022-09-28T04:05:51;96507.19;;;13.06;100.00
58771;BME280;44539;42.962;1.596;2022-09-28T04:08:17;96504.31;;;12.95;100.00
58771;BME280;44539;42.962;1.596;2022-09-28T04:10:43;96498.19;;;12.87;100.00
58771;BME280;44539;42.962;1.596;2022-09-28T04:13:08;96508.22;;;12.85;100.00
58771;BME280;44539;42.962;1.596;2022-09-28T04:15:34;96508.84;;;12.87;100.00
58771;BME280;44539;42.962;1.596;2022-09-28T04:17:59;96484.22;;;13.05;100.00
58771;BME280;44539;42.962;1.596;2022-09-28T04:20:24;96490.59;;;13.11;100.00
58771;BME280;44539;42.962;1.596;2022-09-28T04:22:50;96483.41;;;13.25;100.00
58771;BME280;44539;42.962;1.596;2022-09-28T04:25:16;96476.81;;;13.27;100.00
58771;BME280;44539;42.962;1.596;2022-09-28T04:27:41;96474.16;;;13.27;100.00
58771;BME280;44539;42.962;1.596;2022-09-28T04:30:25;96485.03;;;13.33;100.00
58771;BME280;44539;42.962;1.596;2022-09-28T04:32:50;96491.81;;;13.28;100.00
58771;BME280;44539;42.962;1.596;2022-09-28T04:35:16;96486.47;;;13.28;100.00
58771;BME280;44539;42.962;1.596;2022-09-28T04:37:41;96486.22;;;13.43;100.00
58771;BME280;44539;42.962;1.596;2022-09-28T04:40:07;96488.91;;;13.43;100.00
58771;BME280;44539;42.962;1.596;2022-09-28T04:42:33;96482.13;;;13.41;100.00
58771;BME280;44539;42.962;1.596;2022-09-28T04:44:58;96487.66;;;13.46;100.00
58771;BME280;44539;42.962;1.596;2022-09-28T04:47:25;96486.66;;;13.47;100.00
58771;BME280;44539;42.962;1.596;2022-09-28T04:49:51;96481.31;;;13.47;100.00
58771;BME280;44539;42.962;1.596;2022-09-28T04:52:16;96477.81;;;13.53;100.00
58771;BME280;44539;42.962;1.596;2022-09-28T04:54:42;96470.97;;;13.71;100.00
58771;BME280;44539;42.962;1.596;2022-09-28T04:57:07;96496.56;;;13.78;100.00
58771;BME280;44539;42.962;1.596;2022-09-28T04:59:33;96475.59;;;13.88;100.00
58771;BME280;44539;42.962;1.596;2022-09-28T05:01:58;96463.75;;;13.78;100.00
58771;BME280;44539;42.962;1.596;2022-09-28T05:04:24;96466.63;;;13.69;100.00
58771;BME280;44539;42.962;1.596;2022-09-28T05:06:49;96472.25;;;13.61;100.00
58771;BME280;44539;42.962;1.596;2022-09-28T05:09:15;96464.47;;;13.53;100.00
58771;BME280;44539;42.962;1.596;2022-09-28T05:11:40;96461.56;;;13.55;100.00
58771;BME280;44539;42.962;1.596;2022-09-28T05:14:06;96465.28;;;13.54;100.00
58771;BME280;44539;42.962;1.596;2022-09-28T05:16:31;96466.69;;;13.56;100.00
58771;BME280;44539;42.962;1.596;2022-09-28T05:18:58;96457.28;;;13.54;100.00
58771;BME280;44539;42.962;1.596;2022-09-28T05:21:24;96469.56;;;13.55;100.00
58771;BME280;44539;42.962;1.596;2022-09-28T05:23:51;96462.59;;;13.54;100.00
58771;BME280;44539;42.962;1.596;2022-09-28T05:26:20;96464.03;;;13.56;100.00
58771;BME280;44539;42.962;1.596;2022-09-28T05:28:45;96459.13;;;13.53;100.00
58771;BME280;44539;42.962;1.596;2022-09-28T05:31:11;96460.56;;;13.49;100.00
58771;BME280;44539;42.962;1.596;2022-09-28T05:33:36;96461.19;;;13.51;100.00
58771;BME280;44539;42.962;1.596;2022-09-28T05:36:02;96453.38;;;13.50;100.00
58771;BME280;44539;42.962;1.596;2022-09-28T05:38:29;96448.25;;;13.48;100.00
58771;BME280;44539;42.962;1.596;2022-09-28T05:40:54;96454.03;;;13.45;100.00
58771;BME280;44539;42.962;1.596;2022-09-28T05:43:20;96458.34;;;13.39;100.00
58771;BME280;44539;42.962;1.596;2022-09-28T05:45:46;96461.81;;;13.46;100.00
58771;BME280;44539;42.962;1.596;2022-09-28T05:48:12;96473.91;;;13.49;100.00
58771;BME280;44539;42.962;1.596;2022-09-28T05:50:37;96460.94;;;13.66;100.00
58771;BME280;44539;42.962;1.596;2022-09-28T05:53:07;96463.19;;;13.62;100.00
58771;BME280;44539;42.962;1.596;2022-09-28T05:55:34;96458.16;;;13.86;100.00
58771;BME280;44539;42.962;1.596;2022-09-28T05:58:01;96464.78;;;13.77;100.00
58771;BME280;44539;42.962;1.596;2022-09-28T06:00:27;96461.31;;;13.69;100.00
58771;BME280;44539;42.962;1.596;2022-09-28T06:02:57;96466.03;;;13.67;100.00
58771;BME280;44539;42.962;1.596;2022-09-28T06:05:24;96458.69;;;13.56;100.00
58771;BME280;44539;42.962;1.596;2022-09-28T06:07:50;96464.84;;;13.57;100.00
58771;BME280;44539;42.962;1.596;2022-09-28T06:10:15;96470.63;;;13.54;100.00
58771;BME280;44539;42.962;1.596;2022-09-28T06:12:40;96460.75;;;13.54;100.00
58771;BME280;44539;42.962;1.596;2022-09-28T06:15:06;96473.63;;;13.71;100.00
58771;BME280;44539;42.962;1.596;2022-09-28T06:17:32;96470.88;;;13.91;100.00
58771;BME280;44539;42.962;1.596;2022-09-28T06:19:57;96472.72;;;13.90;100.00
58771;BME280;44539;42.962;1.596;2022-09-28T06:22:23;96474.50;;;14.03;100.00
58771;BME280;44539;42.962;1.596;2022-09-28T06:24:48;96471.84;;;14.03;100.00
58771;BME280;44539;42.962;1.596;2022-09-28T06:27:14;96466.94;;;13.93;100.00
58771;BME280;44539;42.962;1.596;2022-09-28T06:29:39;96471.09;;;13.89;100.00
58771;BME280;44539;42.962;1.596;2022-09-28T06:32:05;96469.31;;;13.76;100.00
58771;BME280;44539;42.962;1.596;2022-09-28T06:34:31;96466.63;;;13.76;100.00
58771;BME280;44539;42.962;1.596;2022-09-28T06:36:57;96471.09;;;13.82;100.00
58771;BME280;44539;42.962;1.596;2022-09-28T06:39:22;96464.75;;;13.83;100.00
58771;BME280;44539;42.962;1.596;2022-09-28T06:41:48;96457.00;;;13.68;100.00
58771;BME280;44539;42.962;1.596;2022-09-28T06:44:13;96463.56;;;13.73;100.00
58771;BME280;44539;42.962;1.596;2022-09-28T06:46:38;96454.09;;;13.77;100.00
58771;BME280;44539;42.962;1.596;2022-09-28T06:49:05;96464.38;;;13.73;100.00
58771;BME280;44539;42.962;1.596;2022-09-28T06:51:33;96461.91;;;13.72;100.00
58771;BME280;44539;42.962;1.596;2022-09-28T06:53:59;96453.91;;;13.72;100.00
58771;BME280;44539;42.962;1.596;2022-09-28T06:56:25;96451.84;;;13.74;100.00
58771;BME280;44539;42.962;1.596;2022-09-28T06:58:50;96446.75;;;13.72;100.00
58771;BME280;44539;42.962;1.596;2022-09-28T07:01:15;96459.84;;;13.74;100.00
58771;BME280;44539;42.962;1.596;2022-09-28T07:03:41;96453.50;;;13.75;100.00
58771;BME280;44539;42.962;1.596;2022-09-28T07:06:09;96441.78;;;13.76;100.00
58771;BME280;44539;42.962;1.596;2022-09-28T07:08:35;96453.66;;;13.80;100.00
58771;BME280;44539;42.962;1.596;2022-09-28T07:11:05;96454.72;;;13.79;100.00
58771;BME280;44539;42.962;1.596;2022-09-28T07:13:30;96457.13;;;14.25;100.00
58771;BME280;44539;42.962;1.596;2022-09-28T07:15:57;96447.00;;;14.34;100.00
58771;BME280;44539;42.962;1.596;2022-09-28T07:18:24;96443.03;;;14.43;100.00
58771;BME280;44539;42.962;1.596;2022-09-28T07:20:50;96432.59;;;14.35;100.00
58771;BME280;44539;42.962;1.596;2022-09-28T07:23:17;96431.38;;;14.31;100.00
58771;BME280;44539;42.962;1.596;2022-09-28T07:25:43;96427.78;;;14.19;100.00
58771;BME280;44539;42.962;1.596;2022-09-28T07:28:11;96426.81;;;14.13;100.00
58771;BME280;44539;42.962;1.596;2022-09-28T07:30:37;96420.19;;;14.16;100.00
58771;BME280;44539;42.962;1.596;2022-09-28T07:33:04;96423.00;;;14.27;100.00
58771;BME280;44539;42.962;1.596;2022-09-28T07:35:32;96425.28;;;14.24;100.00
58771;BME280;44539;42.962;1.596;2022-09-28T07:38:03;96424.28;;;14.18;100.00
58771;BME280;44539;42.962;1.596;2022-09-28T07:40:29;96427.34;;;14.22;100.00
58771;BME280;44539;42.962;1.596;2022-09-28T07:43:14;96424.25;;;14.25;100.00
58771;BME280;44539;42.962;1.596;2022-09-28T07:45:50;96429.97;;;14.28;100.00
58771;BME280;44539;42.962;1.596;2022-09-28T07:48:16;96404.22;;;14.41;100.00
58771;BME280;44539;42.962;1.596;2022-09-28T07:50:50;96409.41;;;14.86;100.00
58771;BME280;44539;42.962;1.596;2022-09-28T07:53:17;96405.31;;;15.02;100.00
58771;BME280;44539;42.962;1.596;2022-09-28T07:55:48;96405.97;;;14.97;100.00
58771;BME280;44539;42.962;1.596;2022-09-28T07:58:14;96403.00;;;14.87;100.00
58771;BME280;44539;42.962;1.596;2022-09-28T08:00:39;96403.34;;;14.72;100.00
58771;BME280;44539;42.962;1.596;2022-09-28T08:03:04;96409.88;;;14.76;100.00
58771;BME280;44539;42.962;1.596;2022-09-28T08:05:30;96416.31;;;14.94;100.00
58771;BME280;44539;42.962;1.596;2022-09-28T08:07:59;96417.88;;;15.01;100.00
58771;BME280;44539;42.962;1.596;2022-09-28T08:10:25;96430.22;;;15.02;100.00
58771;BME280;44539;42.962;1.596;2022-09-28T08:12:58;96419.06;;;15.05;100.00
58771;BME280;44539;42.962;1.596;2022-09-28T08:15:27;96439.41;;;14.88;100.00
58771;BME280;44539;42.962;1.596;2022-09-28T08:17:53;96424.38;;;14.87;100.00
58771;BME280;44539;42.962;1.596;2022-09-28T08:20:19;96421.78;;;14.80;100.00
58771;BME280;44539;42.962;1.596;2022-09-28T08:23:05;96416.00;;;14.83;100.00
58771;BME280;44539;42.962;1.596;2022-09-28T08:25:31;96418.00;;;14.88;100.00
58771;BME280;44539;42.962;1.596;2022-09-28T08:27:57;96420.91;;;14.86;100.00
58771;BME280;44539;42.962;1.596;2022-09-28T08:30:22;96436.50;;;14.89;100.00
58771;BME280;44539;42.962;1.596;2022-09-28T08:32:48;96439.00;;;14.84;100.00
58771;BME280;44539;42.962;1.596;2022-09-28T08:35:14;96445.63;;;14.82;100.00
58771;BME280;44539;42.962;1.596;2022-09-28T08:37:39;96438.25;;;14.77;100.00
58771;BME280;44539;42.962;1.596;2022-09-28T08:40:09;96444.69;;;14.69;100.00
58771;BME280;44539;42.962;1.596;2022-09-28T08:42:41;96451.91;;;14.69;100.00
58771;BME280;44539;42.962;1.596;2022-09-28T08:45:10;96455.44;;;14.63;100.00
58771;BME280;44539;42.962;1.596;2022-09-28T08:48:03;96460.03;;;14.56;100.00
58771;BME280;44539;42.962;1.596;2022-09-28T08:50:57;96457.69;;;14.66;100.00
58771;BME280;44539;42.962;1.596;2022-09-28T08:56:26;96471.28;;;14.64;100.00
58771;BME280;44539;42.962;1.596;2022-09-28T08:58:57;96459.97;;;14.62;100.00
58771;BME280;44539;42.962;1.596;2022-09-28T09:01:30;96464.22;;;14.70;100.00
58771;BME280;44539;42.962;1.596;2022-09-28T09:03:57;96457.41;;;14.74;100.00
58771;BME280;44539;42.962;1.596;2022-09-28T09:06:29;96470.44;;;14.89;100.00
58771;BME280;44539;42.962;1.596;2022-09-28T09:11:46;96470.88;;;15.11;100.00
58771;BME280;44539;42.962;1.596;2022-09-28T09:17:02;96486.78;;;15.24;96.82
58771;BME280;44539;42.962;1.596;2022-09-28T09:22:39;96483.75;;;15.39;93.09
58771;BME280;44539;42.962;1.596;2022-09-28T09:27:43;96480.94;;;15.34;95.68
58771;BME280;44539;42.962;1.596;2022-09-28T09:30:16;96470.81;;;15.36;93.85
58771;BME280;44539;42.962;1.596;2022-09-28T09:35:47;96465.31;;;15.49;96.10
58771;BME280;44539;42.962;1.596;2022-09-28T09:41:19;96476.34;;;15.60;98.09
58771;BME280;44539;42.962;1.596;2022-09-28T09:46:36;96475.31;;;15.79;95.94
58771;BME280;44539;42.962;1.596;2022-09-28T09:49:21;96482.88;;;15.82;98.09
58771;BME280;44539;42.962;1.596;2022-09-28T09:51:58;96491.00;;;15.94;98.01
58771;BME280;44539;42.962;1.596;2022-09-28T09:57:17;96475.72;;;15.95;99.39
58771;BME280;44539;42.962;1.596;2022-09-28T09:59:44;96479.22;;;15.95;100.00
58771;BME280;44539;42.962;1.596;2022-09-28T10:02:31;96469.38;;;16.07;98.49
58771;BME280;44539;42.962;1.596;2022-09-28T10:05:21;96480.91;;;16.08;96.88
58771;BME280;44539;42.962;1.596;2022-09-28T10:08:19;96456.38;;;16.23;93.89
58771;BME280;44539;42.962;1.596;2022-09-28T10:10:50;96471.38;;;16.12;92.02
58771;BME280;44539;42.962;1.596;2022-09-28T10:13:17;96448.97;;;16.06;88.47
58771;BME280;44539;42.962;1.596;2022-09-28T10:15:43;96437.59;;;16.11;89.39
58771;BME280;44539;42.962;1.596;2022-09-28T10:18:13;96424.72;;;16.20;85.50
58771;BME280;44539;42.962;1.596;2022-09-28T10:20:42;96426.38;;;16.44;88.12
58771;BME280;44539;42.962;1.596;2022-09-28T10:23:28;96413.59;;;16.58;84.57
58771;BME280;44539;42.962;1.596;2022-09-28T10:26:01;96423.63;;;16.63;84.73
58771;BME280;44539;42.962;1.596;2022-09-28T10:28:47;96390.38;;;16.64;87.72
58771;BME280;44539;42.962;1.596;2022-09-28T10:31:32;96399.97;;;16.71;85.45
58771;BME280;44539;42.962;1.596;2022-09-28T10:33:58;96380.84;;;16.80;81.79
58771;BME280;44539;42.962;1.596;2022-09-28T10:36:23;96382.84;;;16.84;82.57
58771;BME280;44539;42.962;1.596;2022-09-28T10:38:50;96374.44;;;16.81;80.22
58771;BME280;44539;42.962;1.596;2022-09-28T10:41:16;96371.06;;;16.85;79.88
58771;BME280;44539;42.962;1.596;2022-09-28T10:43:55;96355.69;;;16.92;80.53
58771;BME280;44539;42.962;1.596;2022-09-28T10:46:32;96363.69;;;17.04;80.44
58771;BME280;44539;42.962;1.596;2022-09-28T10:51:43;96349.47;;;17.04;82.18
58771;BME280;44539;42.962;1.596;2022-09-28T10:54:25;96330.03;;;16.97;79.04
58771;BME280;44539;42.962;1.596;2022-09-28T10:56:52;96326.50;;;16.96;78.59
58771;BME280;44539;42.962;1.596;2022-09-28T11:02:35;96309.28;;;16.92;82.72
58771;BME280;44539;42.962;1.596;2022-09-28T11:05:03;96303.19;;;16.97;81.52
58771;BME280;44539;42.962;1.596;2022-09-28T11:07:42;96305.47;;;17.28;80.16
58771;BME280;44539;42.962;1.596;2022-09-28T11:10:19;96298.50;;;17.44;81.24
58771;BME280;44539;42.962;1.596;2022-09-28T11:12:46;96297.91;;;17.42;78.00
58771;BME280;44539;42.962;1.596;2022-09-28T11:15:20;96288.19;;;17.53;78.15
58771;BME280;44539;42.962;1.596;2022-09-28T11:17:46;96313.66;;;17.50;79.86
58771;BME280;44539;42.962;1.596;2022-09-28T11:22:59;96330.84;;;17.38;79.46
58771;BME280;44539;42.962;1.596;2022-09-28T11:25:39;96327.00;;;17.33;78.37
58771;BME280;44539;42.962;1.596;2022-09-28T11:28:05;96325.06;;;17.29;78.52
58771;BME280;44539;42.962;1.596;2022-09-28T11:30:52;96321.56;;;17.28;77.25
58771;BME280;44539;42.962;1.596;2022-09-28T11:41:47;96297.53;;;17.50;76.52
58771;BME280;44539;42.962;1.596;2022-09-28T11:49:37;96265.59;;;17.94;75.32
58771;BME280;44539;42.962;1.596;2022-09-28T11:52:09;96265.16;;;18.20;70.10
58771;BME280;44539;42.962;1.596;2022-09-28T11:54:45;96249.59;;;18.22;72.49
58771;BME280;44539;42.962;1.596;2022-09-28T11:57:19;96249.84;;;18.37;72.14
58771;BME280;44539;42.962;1.596;2022-09-28T11:59:59;96247.44;;;18.57;74.31
58771;BME280;44539;42.962;1.596;2022-09-28T12:02:36;96241.44;;;18.50;72.04
58771;BME280;44539;42.962;1.596;2022-09-28T12:07:43;96285.50;;;18.32;71.97
58771;BME280;44539;42.962;1.596;2022-09-28T12:10:58;96262.00;;;18.23;71.40
58771;BME280;44539;42.962;1.596;2022-09-28T12:13:18;96271.09;;;18.22;72.46
58771;BME280;44539;42.962;1.596;2022-09-28T12:15:52;96287.00;;;18.06;70.51
58771;BME280;44539;42.962;1.596;2022-09-28T12:21:40;96281.97;;;17.81;72.62
58771;BME280;44539;42.962;1.596;2022-09-28T12:23:39;96281.44;;;17.96;74.57
58771;BME280;44539;42.962;1.596;2022-09-28T12:28:44;96263.72;;;17.66;75.30
58771;BME280;44539;42.962;1.596;2022-09-28T12:31:19;96259.03;;;17.73;75.86
58771;BME280;44539;42.962;1.596;2022-09-28T12:33:48;96249.75;;;17.81;77.72
58771;BME280;44539;42.962;1.596;2022-09-28T12:36:42;96247.78;;;17.76;77.85
58771;BME280;44539;42.962;1.596;2022-09-28T13:10:10;96237.19;;;18.54;71.09
58771;BME280;44539;42.962;1.596;2022-09-28T13:12:42;96229.78;;;18.84;70.48
58771;BME280;44539;42.962;1.596;2022-09-28T13:15:16;96220.50;;;18.74;71.52
58771;BME280;44539;42.962;1.596;2022-09-28T13:23:26;96225.84;;;19.68;68.18
58771;BME280;44539;42.962;1.596;2022-09-28T13:26:08;96234.88;;;19.84;65.69
58771;BME280;44539;42.962;1.596;2022-09-28T13:28:39;96242.81;;;19.41;67.06
58771;BME280;44539;42.962;1.596;2022-09-28T13:31:05;96232.44;;;19.82;67.50
58771;BME280;44539;42.962;1.596;2022-09-28T13:33:37;96232.88;;;19.42;68.45
58771;BME280;44539;42.962;1.596;2022-09-28T13:38:54;96243.56;;;18.70;69.72
58771;BME280;44539;42.962;1.596;2022-09-28T13:41:26;96223.75;;;18.54;70.33
58771;BME280;44539;42.962;1.596;2022-09-28T13:52:29;96200.19;;;20.77;64.59
58771;BME280;44539;42.962;1.596;2022-09-28T13:57:44;96195.78;;;19.76;64.94
58771;BME280;44539;42.962;1.596;2022-09-28T14:05:44;96176.53;;;20.42;64.21
58771;BME280;44539;42.962;1.596;2022-09-28T14:14:05;96180.78;;;20.86;63.85
58771;BME280;44539;42.962;1.596;2022-09-28T14:16:46;96177.66;;;20.56;60.57
58771;BME280;44539;42.962;1.596;2022-09-28T14:19:32;96182.59;;;20.59;60.66
58771;BME280;44539;42.962;1.596;2022-09-28T14:22:10;96184.34;;;20.01;64.35
58771;BME280;44539;42.962;1.596;2022-09-28T14:33:28;96225.13;;;17.84;81.56
58771;BME280;44539;42.962;1.596;2022-09-28T14:36:22;96236.94;;;17.54;80.23
58771;BME280;44539;42.962;1.596;2022-09-28T14:39:19;96247.59;;;17.66;82.57
58771;BME280;44539;42.962;1.596;2022-09-28T14:42:09;96240.94;;;17.52;81.35
58771;BME280;44539;42.962;1.596;2022-09-28T14:47:40;96240.81;;;17.47;80.78
58771;BME280;44539;42.962;1.596;2022-09-28T14:50:32;96228.22;;;17.30;81.38
58771;BME280;44539;42.962;1.596;2022-09-28T14:53:05;96229.47;;;17.28;80.44
58771;BME280;44539;42.962;1.596;2022-09-28T14:55:44;96213.09;;;17.41;81.78
58771;BME280;44539;42.962;1.596;2022-09-28T14:58:17;96217.31;;;18.39;75.40
58771;BME280;44539;42.962;1.596;2022-09-28T15:00:45;96208.47;;;18.38;76.29
58771;BME280;44539;42.962;1.596;2022-09-28T15:03:11;96206.69;;;18.88;74.67
58771;BME280;44539;42.962;1.596;2022-09-28T15:05:42;96201.47;;;19.52;71.47
58771;BME280;44539;42.962;1.596;2022-09-28T15:08:10;96204.66;;;19.49;69.31
58771;BME280;44539;42.962;1.596;2022-09-28T15:10:38;96221.97;;;19.04;72.07
58771;BME280;44539;42.962;1.596;2022-09-28T15:13:25;96215.41;;;18.95;72.04
58771;BME280;44539;42.962;1.596;2022-09-28T15:15:54;96205.53;;;19.28;70.95
58771;BME280;44539;42.962;1.596;2022-09-28T15:21:13;96191.84;;;20.31;68.89
58771;BME280;44539;42.962;1.596;2022-09-28T15:23:40;96196.69;;;19.65;69.12
58771;BME280;44539;42.962;1.596;2022-09-28T15:28:46;96201.47;;;19.03;69.37
58771;BME280;44539;42.962;1.596;2022-09-28T15:31:20;96205.34;;;20.36;66.54
58771;BME280;44539;42.962;1.596;2022-09-28T15:33:46;96214.41;;;19.55;66.88
58771;BME280;44539;42.962;1.596;2022-09-28T15:36:34;96216.69;;;18.70;71.92
58771;BME280;44539;42.962;1.596;2022-09-28T15:39:05;96216.91;;;19.08;69.20
58771;BME280;44539;42.962;1.596;2022-09-28T15:41:32;96209.16;;;18.50;72.40
58771;BME280;44539;42.962;1.596;2022-09-28T15:47:08;96228.44;;;17.91;76.88
58771;BME280;44539;42.962;1.596;2022-09-28T15:52:33;96228.75;;;17.04;86.23
58771;BME280;44539;42.962;1.596;2022-09-28T15:55:02;96233.84;;;17.17;87.38
58771;BME280;44539;42.962;1.596;2022-09-28T15:57:38;96235.34;;;16.72;88.74
58771;BME280;44539;42.962;1.596;2022-09-28T16:03:18;96242.50;;;16.31;90.69
58771;BME280;44539;42.962;1.596;2022-09-28T16:05:45;96245.78;;;16.33;93.68
58771;BME280;44539;42.962;1.596;2022-09-28T16:08:35;96232.03;;;16.18;94.26
58771;BME280;44539;42.962;1.596;2022-09-28T16:15:59;96256.59;;;16.03;98.22
58771;BME280;44539;42.962;1.596;2022-09-28T16:18:29;96268.47;;;15.96;99.54
58771;BME280;44539;42.962;1.596;2022-09-28T16:21:06;96279.75;;;15.86;100.00
58771;BME280;44539;42.962;1.596;2022-09-28T16:23:49;96282.84;;;15.41;100.00